Time;durP1;ratioP1;P1;durP2;ratioP2;P2;SDS_P1;SDS_P2;PMS_P1;PMS_P2;Temp;Humidity;BMP_temperature;BMP_pressure;BME280_temperature;BME280_humidity;BME280_pressure;Samples;Min_cycle;Max_cycle;Signal;HPM_P1;HPM_P2
2022/08/03 00:01:51;;;;;;;6.37;5.97;;;22.30;99.90;;;;;;5029527;28;20221;-68
2022/08/03 00:04:17;;;;;;;6.57;6.10;;;22.30;99.90;;;;;;5031752;28;20206;-68
2022/08/03 00:06:43;;;;;;;7.30;6.63;;;22.30;99.90;;;;;;5033539;28;20510;-68
2022/08/03 00:09:09;;;;;;;7.17;6.60;;;22.30;99.90;;;;;;5034685;28;20270;-68
2022/08/03 00:11:35;;;;;;;6.77;6.27;;;22.20;99.90;;;;;;5034243;28;20182;-67
2022/08/03 00:14:02;;;;;;;7.23;6.73;;;22.30;99.90;;;;;;5033025;28;20492;-68
2022/08/03 00:16:27;;;;;;;6.43;6.03;;;22.20;99.90;;;;;;5034330;28;20443;-68
2022/08/03 00:18:53;;;;;;;6.50;6.00;;;22.20;99.90;;;;;;5034527;28;20406;-68
2022/08/03 00:21:19;;;;;;;7.20;6.70;;;22.20;99.90;;;;;;5032769;28;20554;-67
2022/08/03 00:23:48;;;;;;;7.00;6.60;;;22.20;99.90;;;;;;5034352;28;20186;-69
2022/08/03 00:26:13;;;;;;;7.60;7.10;;;22.20;99.90;;;;;;5034940;28;20178;-68
2022/08/03 00:28:39;;;;;;;9.17;8.47;;;22.20;99.90;;;;;;5034123;28;20425;-67
2022/08/03 00:31:06;;;;;;;8.33;7.77;;;22.10;99.90;;;;;;5031810;28;20285;-68
2022/08/03 00:33:32;;;;;;;7.00;6.50;;;22.10;99.90;;;;;;5034179;28;20573;-68
2022/08/03 00:35:58;;;;;;;7.50;7.00;;;22.10;99.90;;;;;;5032534;28;20504;-68
2022/08/03 00:38:23;;;;;;;7.40;6.87;;;22.10;99.90;;;;;;5035081;28;20692;-67
2022/08/03 00:40:49;;;;;;;7.70;7.10;;;22.10;99.90;;;;;;5034049;28;20574;-69
2022/08/03 00:43:15;;;;;;;8.57;7.90;;;22.10;99.90;;;;;;5032332;28;20196;-67
2022/08/03 00:45:41;;;;;;;7.40;6.70;;;22.10;99.90;;;;;;5034763;28;20261;-68
2022/08/03 00:48:09;;;;;;;7.60;7.00;;;22.00;99.90;;;;;;5033949;28;20174;-67
2022/08/03 00:50:39;;;;;;;7.60;7.00;;;22.00;99.90;;;;;;5034522;28;20488;-67
2022/08/03 00:53:06;;;;;;;7.10;6.60;;;22.00;99.90;;;;;;5031888;28;20563;-67
2022/08/03 00:55:32;;;;;;;7.70;7.00;;;21.90;99.90;;;;;;5034857;28;20405;-67
2022/08/03 00:58:03;;;;;;;7.67;6.97;;;22.00;99.90;;;;;;5031501;28;20938;-69
2022/08/03 01:00:29;;;;;;;7.93;7.33;;;22.00;99.90;;;;;;5033354;28;20422;-67
2022/08/03 01:02:55;;;;;;;7.27;6.77;;;21.90;99.90;;;;;;5031557;28;20441;-68
2022/08/03 01:05:21;;;;;;;8.10;6.17;;;21.90;99.90;;;;;;5032682;28;20215;-67
2022/08/03 01:07:55;;;;;;;7.30;6.70;;;21.90;99.90;;;;;;5034066;28;20265;-67
2022/08/03 01:10:28;;;;;;;6.77;6.17;;;21.90;99.90;;;;;;5034326;28;20752;-67
2022/08/03 01:13:09;;;;;;;7.23;6.73;;;21.90;99.90;;;;;;5031490;28;20472;-68
2022/08/03 01:15:45;;;;;;;7.33;6.70;;;21.90;99.90;;;;;;5034286;28;20397;-68
2022/08/03 01:18:19;;;;;;;7.10;6.60;;;21.90;99.90;;;;;;5032136;28;20539;-68
2022/08/03 01:20:48;;;;;;;7.90;7.20;;;21.80;99.90;;;;;;5031806;28;20433;-68
2022/08/03 01:23:44;;;;;;;8.57;7.97;;;21.80;99.90;;;;;;5031673;28;20535;-68
2022/08/03 01:26:38;;;;;;;7.87;7.27;;;21.80;99.90;;;;;;5032489;28;20421;-67
2022/08/03 01:29:31;;;;;;;10.23;6.57;;;21.80;99.90;;;;;;5033138;28;20417;-67
2022/08/03 01:32:02;;;;;;;7.30;6.70;;;21.80;99.90;;;;;;5031869;28;20437;-68
2022/08/03 01:34:33;;;;;;;7.87;7.30;;;21.70;99.90;;;;;;5033984;28;20402;-67
2022/08/03 01:37:02;;;;;;;7.40;6.90;;;21.70;99.90;;;;;;5033077;28;20398;-67
2022/08/03 01:39:30;;;;;;;6.60;6.10;;;21.70;99.90;;;;;;5033332;28;20428;-67
2022/08/03 01:42:05;;;;;;;7.20;6.70;;;21.70;99.90;;;;;;5030842;28;20436;-68
2022/08/03 01:44:37;;;;;;;7.57;7.00;;;21.70;99.90;;;;;;5033459;28;20554;-68
2022/08/03 01:47:05;;;;;;;7.30;6.90;;;21.60;99.90;;;;;;5032840;28;20400;-68
2022/08/03 01:49:35;;;;;;;7.33;6.83;;;21.60;99.90;;;;;;5031047;28;20438;-68
2022/08/03 01:52:03;;;;;;;7.70;7.17;;;21.60;99.90;;;;;;5032820;28;20949;-68
2022/08/03 01:54:33;;;;;;;7.77;7.17;;;21.60;99.90;;;;;;5031570;28;20523;-68
2022/08/03 01:56:59;;;;;;;7.63;7.03;;;21.60;99.90;;;;;;5032622;28;20413;-68
2022/08/03 01:59:26;;;;;;;8.50;7.90;;;21.60;99.90;;;;;;5032149;28;20798;-67
2022/08/03 02:01:53;;;;;;;8.00;7.30;;;21.60;99.90;;;;;;5031729;28;20210;-70
2022/08/03 02:04:20;;;;;;;7.57;7.07;;;21.60;99.90;;;;;;5032987;28;20413;-67
2022/08/03 02:06:48;;;;;;;8.23;7.50;;;21.60;99.90;;;;;;5031109;28;20464;-68
2022/08/03 02:09:16;;;;;;;7.47;6.97;;;21.60;99.90;;;;;;5031164;28;20493;-68
2022/08/03 02:11:43;;;;;;;7.23;6.60;;;21.60;99.90;;;;;;5029215;28;20541;-68
2022/08/03 02:14:10;;;;;;;6.60;6.20;;;21.60;99.90;;;;;;5032302;28;20432;-68
2022/08/03 02:16:36;;;;;;;6.67;6.23;;;21.60;99.90;;;;;;5032828;28;20968;-68
2022/08/03 02:19:05;;;;;;;7.63;7.03;;;21.60;99.90;;;;;;5032247;28;20496;-68
2022/08/03 02:21:35;;;;;;;6.40;5.93;;;21.60;99.90;;;;;;5031360;28;20490;-67
2022/08/03 02:24:01;;;;;;;5.90;5.60;;;21.60;99.90;;;;;;5030704;28;20947;-68
2022/08/03 02:26:29;;;;;;;6.60;6.10;;;21.50;99.90;;;;;;5031595;28;20425;-68
2022/08/03 02:28:58;;;;;;;6.50;6.10;;;21.50;99.90;;;;;;5031940;28;20410;-70
2022/08/03 02:31:28;;;;;;;6.00;5.60;;;21.50;99.90;;;;;;5031221;28;20467;-68
2022/08/03 02:33:59;;;;;;;5.93;5.53;;;21.50;99.90;;;;;;5032502;28;20871;-69
2022/08/03 02:36:29;;;;;;;6.00;5.60;;;21.40;99.90;;;;;;5031465;28;20389;-69
2022/08/03 02:38:58;;;;;;;6.60;6.10;;;21.40;99.90;;;;;;5031338;28;20443;-70
2022/08/03 02:41:35;;;;;;;6.30;5.90;;;21.40;99.90;;;;;;5032651;28;20487;-68
2022/08/03 02:44:07;;;;;;;6.70;6.10;;;21.40;99.90;;;;;;5030375;28;20467;-68
2022/08/03 02:46:37;;;;;;;6.40;5.90;;;21.30;99.90;;;;;;5030853;28;20425;-68
2022/08/03 02:49:04;;;;;;;5.80;5.50;;;21.40;99.90;;;;;;5030637;28;20786;-68
2022/08/03 02:51:34;;;;;;;6.67;6.07;;;21.40;99.90;;;;;;5030879;28;20457;-68
2022/08/03 02:54:02;;;;;;;6.43;5.93;;;21.40;99.90;;;;;;5031614;28;20465;-68
2022/08/03 02:56:29;;;;;;;6.00;5.60;;;21.40;99.90;;;;;;5030435;28;20413;-68
2022/08/03 02:58:57;;;;;;;6.27;5.87;;;21.40;99.90;;;;;;5032096;28;20397;-69
2022/08/03 03:01:25;;;;;;;6.43;6.00;;;21.30;99.90;;;;;;5030169;28;20443;-67
2022/08/03 03:03:52;;;;;;;7.10;6.50;;;21.30;99.90;;;;;;5031579;28;20959;-70
2022/08/03 03:06:18;;;;;;;7.33;6.83;;;21.30;99.90;;;;;;5028010;28;20425;-70
2022/08/03 03:08:45;;;;;;;7.03;6.63;;;21.30;99.90;;;;;;5029511;28;20785;-70
2022/08/03 03:11:13;;;;;;;7.13;6.63;;;21.30;99.90;;;;;;5030409;28;20416;-70
2022/08/03 03:13:42;;;;;;;7.80;7.30;;;21.30;99.90;;;;;;5032236;28;20474;-70
2022/08/03 03:16:08;;;;;;;7.20;6.60;;;21.30;99.90;;;;;;5031624;28;20514;-70
2022/08/03 03:18:36;;;;;;;6.80;6.30;;;21.20;99.90;;;;;;5030453;28;20425;-70
2022/08/03 03:21:03;;;;;;;7.50;6.80;;;21.20;99.90;;;;;;5014115;28;20464;-70
2022/08/03 03:23:30;;;;;;;7.30;6.83;;;21.20;99.90;;;;;;5031963;28;20467;-70
2022/08/03 03:25:57;;;;;;;7.57;6.97;;;21.20;99.90;;;;;;5032034;28;20944;-71
2022/08/03 03:28:24;;;;;;;7.73;7.23;;;21.20;99.90;;;;;;5030832;28;20530;-70
2022/08/03 03:30:50;;;;;;;7.53;7.00;;;21.20;99.90;;;;;;5028731;28;20428;-70
2022/08/03 03:33:16;;;;;;;8.03;7.43;;;21.10;99.90;;;;;;5030922;28;20820;-70
2022/08/03 03:35:44;;;;;;;7.20;6.70;;;21.20;99.90;;;;;;5032742;28;20897;-69
2022/08/03 03:38:10;;;;;;;7.70;7.10;;;21.10;99.90;;;;;;5017690;28;20516;-70
2022/08/03 03:40:39;;;;;;;8.03;7.30;;;21.10;99.90;;;;;;5013897;28;20401;-70
2022/08/03 03:43:09;;;;;;;8.40;7.70;;;21.10;99.90;;;;;;5035465;28;20420;-70
2022/08/03 03:45:36;;;;;;;8.00;7.40;;;21.10;99.90;;;;;;5036566;28;20968;-70
2022/08/03 03:48:03;;;;;;;7.80;7.00;;;21.10;99.90;;;;;;5023918;28;20507;-70
2022/08/03 03:50:31;;;;;;;7.30;6.60;;;21.10;99.90;;;;;;5035975;28;20544;-70
2022/08/03 03:52:57;;;;;;;7.50;6.80;;;21.10;99.90;;;;;;5036115;28;20452;-69
2022/08/03 03:55:23;;;;;;;6.90;6.33;;;21.10;99.90;;;;;;5035217;28;20445;-69
2022/08/03 03:57:49;;;;;;;8.87;8.10;;;21.10;99.90;;;;;;5027381;28;20894;-70
2022/08/03 04:00:16;;;;;;;8.23;7.53;;;21.10;99.90;;;;;;5030108;28;20431;-70
2022/08/03 04:02:43;;;;;;;9.57;8.97;;;21.10;99.90;;;;;;5031172;28;20188;-69
2022/08/03 04:11:11;;;;;;;9.00;8.10;;;21.00;99.90;;;;;;5033937;28;20424;-70
2022/08/03 04:13:41;;;;;;;7.97;7.30;;;21.00;99.90;;;;;;5034704;28;20796;-70
2022/08/03 04:16:13;;;;;;;9.40;8.80;;;21.00;99.90;;;;;;5032804;28;20447;-70
2022/08/03 04:18:40;;;;;;;8.63;7.83;;;21.00;99.90;;;;;;5031622;28;20456;-70
2022/08/03 04:21:10;;;;;;;9.47;8.80;;;21.00;99.90;;;;;;5032602;28;20997;-70
2022/08/03 04:23:40;;;;;;;8.27;7.67;;;21.00;99.90;;;;;;5035770;28;20771;-70
2022/08/03 04:26:10;;;;;;;8.57;7.83;;;21.00;99.90;;;;;;5033794;28;20425;-70
2022/08/03 04:28:40;;;;;;;9.60;8.70;;;21.00;99.90;;;;;;5032640;28;20437;-70
2022/08/03 04:31:06;;;;;;;9.37;8.67;;;21.00;99.90;;;;;;5034975;28;20411;-70
2022/08/03 04:33:34;;;;;;;7.90;7.30;;;21.00;99.90;;;;;;5035285;28;20833;-70
2022/08/03 04:36:03;;;;;;;8.00;7.30;;;21.00;99.90;;;;;;5032260;28;20898;-71
2022/08/03 04:38:36;;;;;;;9.03;8.33;;;21.00;99.90;;;;;;5033122;28;20830;-69
2022/08/03 04:41:05;;;;;;;8.60;7.90;;;21.00;99.90;;;;;;5020147;28;20430;-71
2022/08/03 04:43:32;;;;;;;8.40;7.80;;;21.00;99.90;;;;;;5034563;28;20783;-70
2022/08/03 04:45:59;;;;;;;9.07;8.30;;;21.00;99.90;;;;;;5025983;28;20421;-70
2022/08/03 04:48:25;;;;;;;9.07;8.40;;;21.00;99.90;;;;;;5031826;28;20486;-70
2022/08/03 04:50:51;;;;;;;8.87;8.17;;;21.00;99.90;;;;;;5035037;28;20798;-70
2022/08/03 04:53:17;;;;;;;9.80;9.00;;;21.00;99.90;;;;;;5033461;28;20468;-70
2022/08/03 04:55:43;;;;;;;9.30;8.60;;;21.00;99.90;;;;;;5032754;28;20507;-70
2022/08/03 04:58:08;;;;;;;8.30;7.70;;;21.00;99.90;;;;;;5032409;28;20186;-70
2022/08/03 05:00:34;;;;;;;9.20;8.40;;;21.00;99.90;;;;;;5034052;28;20182;-70
2022/08/03 05:03:00;;;;;;;9.53;8.83;;;21.00;99.90;;;;;;5034868;28;20190;-70
2022/08/03 05:05:26;;;;;;;8.63;7.93;;;21.10;99.90;;;;;;5034285;28;20173;-70
2022/08/03 05:07:51;;;;;;;9.13;8.23;;;21.10;99.90;;;;;;5031905;28;20232;-70
2022/08/03 05:10:17;;;;;;;12.07;11.17;;;21.10;99.90;;;;;;5025138;28;20445;-70
2022/08/03 05:12:44;;;;;;;10.00;9.10;;;21.10;99.90;;;;;;5034947;28;20193;-70
2022/08/03 05:15:11;;;;;;;9.90;9.30;;;21.10;99.90;;;;;;5034059;28;20174;-70
2022/08/03 05:17:36;;;;;;;9.20;8.33;;;21.20;99.90;;;;;;5032382;28;20440;-70
2022/08/03 05:20:03;;;;;;;8.73;8.03;;;21.30;99.90;;;;;;5034231;28;20428;-70
2022/08/03 05:22:29;;;;;;;8.10;7.40;;;21.30;99.90;;;;;;5034538;28;20261;-70
2022/08/03 05:24:55;;;;;;;11.20;10.30;;;21.30;99.90;;;;;;5034146;28;20516;-70
2022/08/03 05:27:20;;;;;;;9.40;8.10;;;21.40;99.90;;;;;;5031974;28;20274;-70
2022/08/03 05:29:48;;;;;;;9.33;8.60;;;21.40;99.90;;;;;;5030633;28;20221;-70
2022/08/03 05:32:15;;;;;;;8.23;7.63;;;21.40;99.90;;;;;;5031175;28;20229;-70
2022/08/03 05:34:40;;;;;;;9.70;8.80;;;21.50;99.90;;;;;;5032084;28;20433;-70
2022/08/03 05:37:06;;;;;;;9.43;8.70;;;21.50;99.90;;;;;;5032561;28;20436;-70
2022/08/03 05:39:32;;;;;;;9.37;8.67;;;21.50;99.90;;;;;;5034391;28;20171;-70
2022/08/03 05:41:59;;;;;;;9.00;8.20;;;21.60;99.90;;;;;;5030158;28;20526;-70
2022/08/03 05:44:24;;;;;;;8.90;8.10;;;21.60;99.90;;;;;;5033537;28;20416;-70
2022/08/03 05:46:51;;;;;;;10.13;9.20;;;21.60;99.90;;;;;;5032943;28;20405;-70
2022/08/03 05:49:17;;;;;;;12.80;11.70;;;21.70;99.90;;;;;;5033462;28;20178;-70
2022/08/03 05:51:43;;;;;;;11.30;10.30;;;21.70;99.90;;;;;;5028823;28;20694;-70
2022/08/03 05:54:08;;;;;;;10.30;9.60;;;21.70;99.90;;;;;;5033350;28;20966;-69
2022/08/03 05:56:34;;;;;;;10.20;9.40;;;21.80;99.90;;;;;;5033901;28;20179;-72
2022/08/03 05:59:00;;;;;;;10.70;9.90;;;21.90;99.90;;;;;;5033857;28;20515;-71
2022/08/03 06:01:26;;;;;;;9.90;8.90;;;22.10;99.90;;;;;;5031399;28;20232;-71
2022/08/03 06:03:51;;;;;;;9.63;8.80;;;22.30;99.90;;;;;;5033725;28;20572;-71
2022/08/03 06:06:18;;;;;;;9.20;8.40;;;22.40;99.90;;;;;;5032831;28;20174;-71
2022/08/03 06:08:45;;;;;;;10.03;9.33;;;22.50;99.90;;;;;;5033645;28;20253;-72
2022/08/03 06:11:11;;;;;;;9.20;8.40;;;22.70;99.90;;;;;;5027192;28;20435;-72
2022/08/03 06:13:38;;;;;;;7.87;7.17;;;22.80;99.90;;;;;;5026164;28;20831;-71
2022/08/03 06:16:04;;;;;;;9.03;8.43;;;22.90;99.90;;;;;;5032718;28;20482;-72
2022/08/03 06:18:29;;;;;;;8.50;7.63;;;23.00;99.90;;;;;;5032934;28;20408;-71
2022/08/03 06:20:55;;;;;;;7.13;6.50;;;23.00;99.90;;;;;;5026781;28;20532;-71
2022/08/03 06:23:21;;;;;;;7.80;7.30;;;23.10;99.90;;;;;;5032094;28;20194;-71
2022/08/03 06:25:47;;;;;;;8.40;7.60;;;23.20;99.90;;;;;;5033425;28;20173;-71
2022/08/03 06:28:13;;;;;;;7.50;7.00;;;23.20;99.90;;;;;;5022204;28;20646;-73
2022/08/03 06:30:40;;;;;;;7.40;6.80;;;23.30;99.90;;;;;;5028352;28;20190;-71
2022/08/03 06:33:09;;;;;;;11.23;10.23;;;23.40;99.90;;;;;;5033357;28;20459;-68
2022/08/03 06:35:35;;;;;;;7.93;6.20;;;23.50;99.90;;;;;;5029936;28;20770;-68
2022/08/03 06:38:00;;;;;;;9.10;7.03;;;23.50;99.90;;;;;;5031505;28;20428;-66
2022/08/03 06:40:30;;;;;;;9.80;9.10;;;23.60;99.90;;;;;;5021564;28;20187;-65
2022/08/03 06:42:57;;;;;;;7.83;7.23;;;23.60;99.90;;;;;;5033024;28;20190;-65
2022/08/03 06:45:23;;;;;;;8.20;7.50;;;23.60;99.90;;;;;;5040393;28;20416;-66
2022/08/03 06:48:08;;;;;;;7.50;6.90;;;23.60;99.90;;;;;;5038117;28;20421;-65
2022/08/03 06:50:40;;;;;;;10.03;9.13;;;23.60;99.90;;;;;;5016282;28;20499;-65
2022/08/03 06:53:06;;;;;;;7.80;7.10;;;23.60;99.90;;;;;;5032846;28;20476;-65
2022/08/03 06:55:32;;;;;;;8.60;7.80;;;23.60;99.90;;;;;;5032281;28;20405;-65
2022/08/03 06:57:58;;;;;;;7.77;7.07;;;23.60;99.90;;;;;;5026729;28;20429;-65
2022/08/03 07:00:24;;;;;;;6.50;5.90;;;23.70;99.90;;;;;;5023584;28;20430;-66
2022/08/03 07:02:49;;;;;;;9.80;9.10;;;23.70;99.90;;;;;;5032803;28;20423;-66
2022/08/03 07:05:15;;;;;;;7.73;7.03;;;23.80;99.90;;;;;;5028524;28;20182;-66
2022/08/03 07:07:41;;;;;;;6.30;5.80;;;23.80;99.90;;;;;;5030725;28;20209;-66
2022/08/03 07:10:08;;;;;;;7.87;7.17;;;23.80;99.90;;;;;;5025274;28;20691;-65
2022/08/03 07:12:35;;;;;;;7.73;7.13;;;23.90;99.90;;;;;;5020837;28;20199;-67
2022/08/03 07:15:02;;;;;;;9.50;8.80;;;23.90;99.90;;;;;;5027894;28;20425;-67
2022/08/03 07:17:30;;;;;;;8.30;7.43;;;24.00;99.90;;;;;;5029522;28;20499;-67
2022/08/03 07:19:56;;;;;;;9.60;9.03;;;24.20;99.90;;;;;;5017334;28;20440;-67
2022/08/03 07:22:22;;;;;;;6.97;6.37;;;24.30;99.90;;;;;;5029418;28;20794;-67
2022/08/03 07:24:50;;;;;;;6.20;5.80;;;24.40;99.90;;;;;;5032507;28;20436;-67
2022/08/03 07:27:16;;;;;;;8.30;7.80;;;24.50;99.90;;;;;;5031596;28;20622;-67
2022/08/03 07:29:42;;;;;;;7.43;6.80;;;24.60;99.90;;;;;;5030881;28;20441;-67
2022/08/03 07:32:08;;;;;;;5.67;5.23;;;24.70;99.90;;;;;;5029983;28;20182;-67
2022/08/03 07:34:33;;;;;;;6.10;5.60;;;24.80;99.90;;;;;;5023852;28;20174;-67
2022/08/03 07:36:59;;;;;;;9.17;8.57;;;24.90;99.90;;;;;;5030604;28;20515;-67
2022/08/03 07:39:25;;;;;;;8.90;8.40;;;25.00;99.90;;;;;;5022505;28;20619;-66
2022/08/03 07:41:53;;;;;;;5.07;4.67;;;25.10;99.90;;;;;;5031941;28;20174;-67
2022/08/03 07:44:18;;;;;;;5.17;4.77;;;25.20;99.90;;;;;;5023928;28;20433;-67
2022/08/03 07:46:45;;;;;;;5.07;4.73;;;25.30;99.90;;;;;;5036267;28;20173;-66
2022/08/03 07:49:11;;;;;;;7.33;6.83;;;25.40;99.80;;;;;;5031709;28;20269;-66
2022/08/03 07:51:37;;;;;;;6.60;6.10;;;25.60;99.00;;;;;;5031899;28;20801;-66
2022/08/03 07:54:03;;;;;;;4.80;4.40;;;25.70;99.60;;;;;;5029451;28;20473;-66
2022/08/03 07:56:29;;;;;;;5.70;4.47;;;25.80;99.50;;;;;;5028157;28;20447;-66
2022/08/03 07:58:55;;;;;;;5.30;4.80;;;25.90;99.60;;;;;;5028830;28;20904;-66
2022/08/03 08:01:22;;;;;;;4.93;4.10;;;26.00;99.00;;;;;;5029468;28;20424;-67
2022/08/03 08:03:48;;;;;;;5.63;5.23;;;26.10;98.10;;;;;;5027489;28;20440;-66
2022/08/03 08:06:14;;;;;;;5.67;5.17;;;26.20;98.90;;;;;;5029155;28;20436;-67
2022/08/03 08:08:40;;;;;;;6.23;5.70;;;26.40;98.80;;;;;;5023420;28;20453;-66
2022/08/03 08:11:06;;;;;;;5.77;5.27;;;26.50;97.60;;;;;;5019649;28;20189;-66
2022/08/03 08:13:32;;;;;;;6.30;5.70;;;26.60;97.40;;;;;;5030552;28;20887;-66
2022/08/03 08:15:58;;;;;;;5.10;4.70;;;26.70;96.90;;;;;;5019032;28;20437;-66
2022/08/03 08:18:24;;;;;;;4.97;4.57;;;26.80;94.50;;;;;;5025200;28;20436;-66
2022/08/03 08:20:50;;;;;;;4.97;4.53;;;26.90;93.30;;;;;;5032011;28;20209;-66
2022/08/03 08:23:21;;;;;;;4.60;4.17;;;27.00;92.20;;;;;;5031175;28;20206;-71
2022/08/03 08:25:48;;;;;;;4.23;3.93;;;27.10;91.40;;;;;;5011339;28;20837;-66
2022/08/03 08:28:16;;;;;;;4.37;4.00;;;27.20;90.60;;;;;;5032759;28;20409;-70
2022/08/03 08:30:42;;;;;;;4.73;4.43;;;27.20;91.80;;;;;;5035702;28;20413;-66
2022/08/03 08:33:08;;;;;;;8.23;4.70;;;27.30;90.90;;;;;;5035384;28;20568;-66
2022/08/03 08:35:37;;;;;;;5.00;4.80;;;27.40;90.60;;;;;;5033430;28;20261;-66
2022/08/03 08:38:02;;;;;;;6.30;6.00;;;27.40;88.30;;;;;;5032914;28;20516;-66
2022/08/03 08:40:28;;;;;;;4.43;4.13;;;27.50;87.40;;;;;;5034737;28;20508;-66
2022/08/03 08:42:55;;;;;;;5.90;5.60;;;27.60;88.50;;;;;;5035627;28;20174;-66
2022/08/03 08:45:20;;;;;;;4.00;3.80;;;27.70;90.10;;;;;;5033426;28;20429;-66
2022/08/03 08:47:48;;;;;;;4.33;4.03;;;27.70;90.10;;;;;;5035218;28;20451;-66
2022/08/03 08:50:21;;;;;;;5.63;5.33;;;27.80;88.80;;;;;;5035055;28;20218;-66
2022/08/03 08:52:48;;;;;;;4.60;4.30;;;27.90;87.80;;;;;;5029483;28;20928;-66
2022/08/03 08:55:22;;;;;;;4.27;3.97;;;28.00;88.30;;;;;;5033279;28;20445;-66
2022/08/03 08:58:00;;;;;;;7.20;6.80;;;28.00;87.10;;;;;;5034744;28;20759;-66
2022/08/03 09:00:26;;;;;;;5.27;4.77;;;28.00;85.90;;;;;;5034382;28;20809;-66
2022/08/03 09:02:55;;;;;;;5.90;5.50;;;28.10;86.00;;;;;;5032998;28;20433;-66
2022/08/03 09:05:20;;;;;;;4.73;4.33;;;28.10;86.90;;;;;;5033339;28;20197;-66
2022/08/03 09:07:47;;;;;;;7.00;6.60;;;28.10;88.00;;;;;;5034770;28;20417;-66
2022/08/03 09:10:20;;;;;;;5.20;4.80;;;28.10;88.00;;;;;;5034785;28;20199;-65
2022/08/03 09:12:52;;;;;;;5.00;4.60;;;28.20;87.90;;;;;;5032694;28;20521;-66
2022/08/03 09:15:45;;;;;;;5.20;4.70;;;28.40;89.70;;;;;;5032176;28;20532;-66
2022/08/03 09:18:11;;;;;;;5.50;5.10;;;28.50;87.90;;;;;;5033724;28;20457;-65
2022/08/03 09:20:36;;;;;;;4.90;4.50;;;28.60;86.00;;;;;;5034102;28;20432;-66
2022/08/03 09:23:08;;;;;;;6.03;5.60;;;28.70;86.10;;;;;;5014912;28;20956;-66
2022/08/03 09:25:36;;;;;;;5.83;5.40;;;28.90;86.20;;;;;;5033897;28;20159;-66
2022/08/03 09:28:14;;;;;;;6.37;5.97;;;29.00;84.10;;;;;;5034316;28;20437;-67
2022/08/03 09:30:43;;;;;;;5.87;5.47;;;29.10;84.00;;;;;;5033797;28;20424;-66
2022/08/03 09:33:11;;;;;;;5.83;5.43;;;29.30;84.00;;;;;;5033101;28;20453;-65
2022/08/03 09:35:46;;;;;;;5.67;5.37;;;29.40;83.40;;;;;;5033567;28;20421;-66
2022/08/03 09:38:24;;;;;;;5.70;5.30;;;29.50;82.30;;;;;;5015369;28;20424;-66
2022/08/03 09:40:51;;;;;;;6.93;5.77;;;29.70;83.70;;;;;;5034408;28;20821;-65
2022/08/03 09:43:18;;;;;;;5.53;5.03;;;29.80;81.00;;;;;;5032930;28;20440;-66
2022/08/03 09:45:44;;;;;;;5.90;4.87;;;29.90;79.70;;;;;;5015422;28;20467;-66
2022/08/03 09:48:20;;;;;;;6.53;6.10;;;30.10;82.70;;;;;;5034005;28;20421;-66
2022/08/03 09:50:57;;;;;;;5.07;4.77;;;30.30;80.50;;;;;;5033836;28;20463;-66
2022/08/03 09:53:24;;;;;;;5.23;4.83;;;30.30;77.90;;;;;;5031428;28;20477;-66
2022/08/03 09:56:00;;;;;;;5.53;5.23;;;30.40;77.10;;;;;;5033892;28;20421;-66
2022/08/03 09:58:31;;;;;;;6.80;6.50;;;30.50;76.80;;;;;;5032939;28;21016;-66
2022/08/03 10:01:02;;;;;;;4.90;4.60;;;30.60;76.00;;;;;;5033925;28;20413;-66
2022/08/03 10:03:37;;;;;;;5.30;4.87;;;30.70;75.10;;;;;;5030880;28;20530;-66
2022/08/03 10:06:18;;;;;;;6.73;6.33;;;30.80;74.80;;;;;;5032843;28;20436;-66
2022/08/03 10:09:03;;;;;;;5.33;5.03;;;30.80;74.30;;;;;;5031803;28;20413;-66
2022/08/03 10:11:29;;;;;;;5.10;4.80;;;30.90;75.00;;;;;;5033065;28;20903;-66
2022/08/03 10:13:55;;;;;;;5.67;5.20;;;30.90;74.50;;;;;;5032283;28;20870;-66
2022/08/03 10:16:21;;;;;;;6.97;6.47;;;31.00;73.20;;;;;;5031784;28;20441;-67
2022/08/03 10:18:47;;;;;;;5.23;4.93;;;31.10;75.10;;;;;;5032310;28;20182;-66
2022/08/03 10:21:18;;;;;;;5.00;4.60;;;31.10;71.80;;;;;;5032057;28;20775;-66
2022/08/03 10:23:46;;;;;;;4.27;4.07;;;31.10;70.80;;;;;;5030900;28;20201;-66
2022/08/03 10:26:17;;;;;;;6.67;6.20;;;31.20;70.00;;;;;;5032170;28;20449;-65
2022/08/03 10:28:49;;;;;;;6.40;6.00;;;31.30;70.70;;;;;;5032669;28;20519;-66
2022/08/03 10:31:17;;;;;;;5.20;4.90;;;31.30;70.50;;;;;;5033442;28;20434;-66
2022/08/03 10:33:45;;;;;;;5.47;5.07;;;31.40;69.10;;;;;;5030535;28;20469;-66
2022/08/03 10:36:13;;;;;;;6.03;5.63;;;31.50;69.40;;;;;;5032061;28;20448;-66
2022/08/03 10:38:55;;;;;;;5.83;3.70;;;31.60;68.60;;;;;;5032281;28;20417;-66
2022/08/03 10:41:30;;;;;;;4.07;3.77;;;31.70;70.00;;;;;;5032687;28;20396;-71
2022/08/03 10:44:07;;;;;;;7.20;6.77;;;31.80;67.90;;;;;;5031558;28;20492;-66
2022/08/03 10:46:34;;;;;;;7.67;7.17;;;31.80;68.60;;;;;;5027520;28;20459;-66
2022/08/03 10:49:01;;;;;;;5.23;4.93;;;31.80;67.90;;;;;;5030940;28;20467;-66
2022/08/03 10:51:30;;;;;;;4.37;4.13;;;31.80;69.70;;;;;;5031434;28;20599;-66
2022/08/03 10:53:59;;;;;;;6.83;6.47;;;31.90;67.50;;;;;;5032807;28;20469;-66
2022/08/03 10:59:21;;;;;;;5.40;5.10;;;32.10;67.50;;;;;;5031705;28;20437;-66
2022/08/03 11:01:53;;;;;;;4.97;4.67;;;32.10;68.40;;;;;;5013616;28;20989;-66
2022/08/03 11:04:20;;;;;;;6.23;5.73;;;32.20;69.10;;;;;;5032856;28;20413;-66
2022/08/03 11:06:47;;;;;;;4.60;4.30;;;32.30;67.70;;;;;;5032170;28;20419;-66
2022/08/03 11:09:15;;;;;;;5.20;4.70;;;32.30;65.90;;;;;;5030384;28;20440;-66
2022/08/03 11:11:42;;;;;;;4.43;3.80;;;32.40;63.30;;;;;;5032115;28;20504;-66
2022/08/03 11:14:10;;;;;;;4.40;4.20;;;32.40;65.90;;;;;;5032523;28;20457;-66
2022/08/03 11:16:46;;;;;;;5.20;4.70;;;32.50;64.30;;;;;;5031994;28;20414;-66
2022/08/03 11:19:21;;;;;;;4.40;4.10;;;32.70;65.40;;;;;;5031505;28;20460;-66
2022/08/03 11:21:50;;;;;;;4.03;3.80;;;32.70;64.80;;;;;;5032057;28;20411;-66
2022/08/03 11:24:56;;;;;;;5.43;4.90;;;32.80;60.60;;;;;;5031228;28;20429;-66
2022/08/03 11:27:24;;;;;;;5.23;4.40;;;32.80;61.00;;;;;;5032612;28;20737;-66
2022/08/03 11:29:54;;;;;;;4.80;4.60;;;32.90;59.80;;;;;;5030571;28;20528;-66
2022/08/03 11:32:56;;;;;;;4.73;4.33;;;32.80;59.60;;;;;;5032367;28;20461;-66
2022/08/03 11:35:34;;;;;;;5.37;4.83;;;32.80;59.90;;;;;;5020871;28;20464;-66
2022/08/03 11:38:03;;;;;;;5.20;4.90;;;32.70;60.00;;;;;;5031279;28;20852;-66
2022/08/03 11:40:49;;;;;;;5.00;4.70;;;32.60;60.20;;;;;;5030867;28;20433;-66
2022/08/03 11:43:21;;;;;;;4.60;4.40;;;32.50;59.80;;;;;;5032252;28;20408;-66
2022/08/03 11:46:15;;;;;;;4.73;4.30;;;32.50;61.80;;;;;;5031708;28;20778;-66
2022/08/03 11:48:43;;;;;;;4.80;4.50;;;32.50;62.30;;;;;;5030621;28;20408;-66
2022/08/03 11:51:30;;;;;;;4.30;4.00;;;32.60;60.70;;;;;;5031826;28;20572;-66
2022/08/03 11:54:04;;;;;;;5.00;4.40;;;32.60;59.00;;;;;;5032092;28;20511;-66
2022/08/03 11:56:44;;;;;;;4.23;3.67;;;32.60;59.50;;;;;;5031616;28;20803;-66
2022/08/03 11:59:10;;;;;;;6.10;5.70;;;32.60;58.90;;;;;;5030460;28;20428;-66
2022/08/03 12:01:37;;;;;;;5.43;5.07;;;32.60;60.00;;;;;;5030873;28;20516;-66
2022/08/03 12:04:04;;;;;;;4.30;4.10;;;32.60;60.10;;;;;;5033893;28;20646;-66
2022/08/03 12:06:29;;;;;;;4.43;3.93;;;32.70;59.20;;;;;;5035366;28;20470;-66
2022/08/03 12:08:55;;;;;;;5.33;4.03;;;32.80;59.00;;;;;;5036191;28;20417;-66
2022/08/03 12:11:22;;;;;;;5.03;4.40;;;32.80;59.80;;;;;;5035913;28;20174;-66
2022/08/03 12:13:50;;;;;;;6.30;4.60;;;32.80;61.20;;;;;;5034084;28;20210;-66
2022/08/03 12:16:27;;;;;;;5.70;5.33;;;32.80;60.30;;;;;;5035775;28;20805;-66
2022/08/03 12:19:03;;;;;;;5.00;4.60;;;32.80;59.90;;;;;;5035990;28;20409;-66
2022/08/03 12:21:29;;;;;;;5.90;4.27;;;32.60;59.60;;;;;;5035304;28;20432;-66
2022/08/03 12:23:58;;;;;;;4.30;3.90;;;32.50;60.80;;;;;;5032934;28;21005;-66
2022/08/03 12:26:25;;;;;;;4.60;4.30;;;32.40;60.10;;;;;;5034715;28;20432;-66
2022/08/03 12:28:51;;;;;;;5.77;5.37;;;32.30;59.80;;;;;;5034660;28;20413;-66
2022/08/03 12:31:17;;;;;;;4.90;4.60;;;32.30;61.70;;;;;;5035480;28;20424;-66
2022/08/03 12:34:01;;;;;;;7.10;4.87;;;32.40;63.10;;;;;;5032972;28;20555;-66
2022/08/03 12:36:29;;;;;;;6.83;6.43;;;32.40;60.10;;;;;;5035373;28;20187;-66
2022/08/03 12:39:03;;;;;;;4.27;3.97;;;32.40;60.70;;;;;;5035322;28;20416;-66
2022/08/03 12:41:29;;;;;;;4.20;3.80;;;32.30;60.60;;;;;;5032254;28;20455;-67
2022/08/03 12:43:55;;;;;;;4.60;4.20;;;32.40;61.30;;;;;;5035237;28;20445;-66
2022/08/03 12:46:21;;;;;;;4.00;3.77;;;32.40;60.10;;;;;;5033486;28;20194;-66
2022/08/03 12:49:05;;;;;;;6.40;5.90;;;32.50;60.70;;;;;;5033700;28;20440;-66
2022/08/03 12:51:56;;;;;;;5.63;5.27;;;32.60;60.40;;;;;;5034496;28;20309;-65
2022/08/03 12:54:30;;;;;;;4.30;4.00;;;32.70;62.00;;;;;;5031988;28;20491;-66
2022/08/03 12:57:06;;;;;;;4.97;3.60;;;32.60;59.90;;;;;;5032723;28;20441;-66
2022/08/03 12:59:44;;;;;;;4.50;4.10;;;32.70;62.30;;;;;;5034410;28;20393;-66
2022/08/03 13:02:20;;;;;;;4.17;3.90;;;32.70;62.00;;;;;;5035071;28;20397;-66
2022/08/03 13:04:47;;;;;;;5.40;3.73;;;32.60;60.00;;;;;;5033244;28;20410;-67